createdAt,value
2018-12-27T00:00:22.427Z,101706.20
2018-12-27T00:02:54.978Z,101709.80
2018-12-27T00:05:22.771Z,101705.33
2018-12-27T00:07:51.998Z,101699.95
2018-12-27T00:10:20.922Z,101700.38
2018-12-27T00:12:50.418Z,101703.52
2018-12-27T00:15:19.359Z,101695.02
2018-12-27T00:17:48.508Z,101702.61
2018-12-27T00:20:17.573Z,101705.77
2018-12-27T00:22:46.421Z,101697.71
2018-12-27T00:25:15.865Z,101695.02
2018-12-27T00:27:44.948Z,101683.39
2018-12-27T00:30:14.299Z,101679.36
2018-12-27T00:32:43.808Z,101678.44
2018-12-27T00:35:13.515Z,101679.78
2018-12-27T00:37:43.149Z,101681.57
2018-12-27T00:40:12.166Z,101674.42
2018-12-27T00:42:41.753Z,101670.39
2018-12-27T00:45:11.337Z,101670.87
2018-12-27T00:47:40.641Z,101673.55
2018-12-27T00:50:09.958Z,101675.35
2018-12-27T00:52:39.198Z,101675.79
2018-12-27T00:55:08.167Z,101677.58
2018-12-27T00:57:38.045Z,101673.13
2018-12-27T01:00:07.547Z,101670.45
2018-12-27T01:02:37.597Z,101666.86
2018-12-27T01:05:07.487Z,101671.34
2018-12-27T01:07:37.094Z,101671.79
2018-12-27T01:10:06.397Z,101670.45
2018-12-27T01:12:35.703Z,101674.00
2018-12-27T01:15:05.023Z,101671.77
2018-12-27T01:17:34.629Z,101670.42
2018-12-27T01:20:03.933Z,101670.42
2018-12-27T01:22:33.520Z,101666.41
2018-12-27T01:25:03.069Z,101672.22
2018-12-27T01:27:32.041Z,101673.56
2018-12-27T01:30:01.341Z,101666.85
2018-12-27T01:32:30.316Z,101673.55
2018-12-27T01:34:59.288Z,101664.14
2018-12-27T01:37:28.352Z,101669.97
2018-12-27T01:39:57.913Z,101665.05
2018-12-27T01:42:26.900Z,101656.55
2018-12-27T01:44:56.233Z,101663.70
2018-12-27T01:47:25.548Z,101662.36
2018-12-27T01:49:54.804Z,101662.36
2018-12-27T01:52:24.248Z,101668.65
2018-12-27T01:54:53.241Z,101658.80
2018-12-27T01:57:23.348Z,101657.89
2018-12-27T01:59:52.645Z,101657.89
2018-12-27T02:02:22.558Z,101654.76
2018-12-27T02:04:51.517Z,101654.76
2018-12-27T02:07:20.497Z,101659.23
2018-12-27T02:09:50.036Z,101657.89
2018-12-27T02:12:19.954Z,101657.91
2018-12-27T02:14:49.177Z,101659.69
2018-12-27T02:17:18.476Z,101662.83
2018-12-27T02:19:47.860Z,101660.59
2018-12-27T02:22:16.850Z,101661.91
2018-12-27T02:24:45.826Z,101660.56
2018-12-27T02:27:15.180Z,101658.34
2018-12-27T02:29:44.732Z,101655.66
2018-12-27T02:32:14.782Z,101659.69
2018-12-27T02:34:43.754Z,101656.11
2018-12-27T02:37:13.231Z,101650.73
2018-12-27T02:39:42.475Z,101654.77
2018-12-27T02:42:11.453Z,101651.59
2018-12-27T02:44:40.699Z,101648.02
2018-12-27T02:47:10.317Z,101653.39
2018-12-27T02:49:39.601Z,101645.34
2018-12-27T02:52:09.209Z,101652.52
2018-12-27T02:54:38.552Z,101644.42
2018-12-27T02:57:07.528Z,101641.29
2018-12-27T02:59:36.852Z,101636.39
2018-12-27T03:02:05.822Z,101644.90
2018-12-27T03:04:35.101Z,101637.28
2018-12-27T03:07:04.685Z,101635.07
2018-12-27T03:09:34.496Z,101634.16
2018-12-27T03:12:04.758Z,101631.03
2018-12-27T03:14:33.986Z,101625.69
2018-12-27T03:17:03.641Z,101625.67
2018-12-27T03:19:32.971Z,101616.73
2018-12-27T03:22:02.280Z,101618.53
2018-12-27T03:24:31.579Z,101608.68
2018-12-27T03:27:01.145Z,101608.23
2018-12-27T03:29:30.378Z,101610.03
2018-12-27T03:31:59.586Z,101605.11
2018-12-27T03:34:28.814Z,101603.75
2018-12-27T03:36:58.393Z,101595.73
2018-12-27T03:39:27.379Z,101594.80
2018-12-27T03:41:56.353Z,101585.41
2018-12-27T03:44:25.841Z,101592.58
2018-12-27T03:46:54.831Z,101587.19
2018-12-27T03:49:24.479Z,101586.72
2018-12-27T03:51:53.480Z,101587.62
2018-12-27T03:54:22.449Z,101588.49
2018-12-27T03:56:51.426Z,101591.63
2018-12-27T03:59:20.913Z,101591.60
2018-12-27T04:01:50.178Z,101585.34
2018-12-27T04:04:19.144Z,101588.00
2018-12-27T04:06:48.448Z,101584.87
2018-12-27T04:09:17.735Z,101582.63
2018-12-27T04:11:47.176Z,101579.94
2018-12-27T04:14:17.149Z,101585.73
2018-12-27T04:16:46.009Z,101582.63
2018-12-27T04:19:15.137Z,101587.53
2018-12-27T04:21:44.073Z,101580.36
2018-12-27T04:24:14.398Z,101578.98
2018-12-27T04:26:43.544Z,101572.71
2018-12-27T04:29:12.394Z,101568.23
2018-12-27T04:31:41.849Z,101567.34
2018-12-27T04:34:11.246Z,101563.75
2018-12-27T04:36:42.156Z,101558.86
2018-12-27T04:39:10.997Z,101557.08
2018-12-27T04:41:40.857Z,101554.87
2018-12-27T04:44:10.244Z,101554.42
2018-12-27T04:46:39.708Z,101556.63
2018-12-27T04:49:08.552Z,101549.05
2018-12-27T04:51:38.065Z,101550.39
2018-12-27T04:54:07.185Z,101553.52
2018-12-27T04:56:36.697Z,101552.63
2018-12-27T04:59:06.313Z,101550.87
2018-12-27T05:01:35.258Z,101543.25
2018-12-27T05:04:04.215Z,101545.94
2018-12-27T05:06:33.025Z,101541.95
2018-12-27T05:09:02.485Z,101543.28
2018-12-27T05:11:32.219Z,101545.52
2018-12-27T05:14:01.076Z,101545.97
2018-12-27T05:16:30.297Z,101545.52
2018-12-27T05:18:59.561Z,101545.05
2018-12-27T05:21:28.802Z,101544.59
2018-12-27T05:23:58.062Z,101543.25
2018-12-27T05:26:27.226Z,101544.19
2018-12-27T05:28:56.396Z,101546.42
2018-12-27T05:31:25.577Z,101551.34
2018-12-27T05:33:54.433Z,101557.19
2018-12-27T05:36:23.539Z,101558.53
2018-12-27T05:38:52.692Z,101555.86
2018-12-27T05:41:22.180Z,101559.02
2018-12-27T05:43:51.126Z,101563.94
2018-12-27T05:46:20.636Z,101568.86
2018-12-27T05:48:50.190Z,101564.83
2018-12-27T05:51:19.290Z,101556.78
2018-12-27T05:53:48.486Z,101552.30
2018-12-27T05:56:17.341Z,101551.39
2018-12-27T05:58:46.244Z,101551.83
2018-12-27T06:01:15.373Z,101548.28
2018-12-27T06:03:44.670Z,101545.14
2018-12-27T06:06:14.463Z,101541.56
2018-12-27T06:08:44.142Z,101548.73
2018-12-27T06:11:13.079Z,101553.20
2018-12-27T06:13:41.925Z,101543.34
2018-12-27T06:16:11.498Z,101544.23
2018-12-27T06:18:41.085Z,101542.03
2018-12-27T06:21:10.015Z,101545.14
2018-12-27T06:23:39.188Z,101545.14
2018-12-27T06:26:08.715Z,101537.54
2018-12-27T06:28:38.089Z,101537.54
2018-12-27T06:31:07.009Z,101541.13
2018-12-27T06:33:35.858Z,101538.88
2018-12-27T06:36:04.788Z,101541.98
2018-12-27T06:38:33.959Z,101536.61
2018-12-27T06:41:03.491Z,101534.38
2018-12-27T06:43:32.976Z,101534.38
2018-12-27T06:46:02.501Z,101533.52
2018-12-27T06:48:31.661Z,101533.52
2018-12-27T06:51:00.581Z,101534.86
2018-12-27T06:53:29.769Z,101528.59
2018-12-27T06:55:59.026Z,101532.17
2018-12-27T06:58:28.476Z,101529.03
2018-12-27T07:00:57.674Z,101534.85
2018-12-27T07:03:27.012Z,101535.30
2018-12-27T07:05:56.481Z,101531.30
2018-12-27T07:08:25.989Z,101538.00
2018-12-27T07:10:55.235Z,101537.55
2018-12-27T07:13:24.340Z,101538.45
2018-12-27T07:15:53.185Z,101540.23
2018-12-27T07:18:22.681Z,101529.50
2018-12-27T07:20:51.980Z,101529.95
2018-12-27T07:23:21.184Z,101528.63
2018-12-27T07:25:50.896Z,101526.38
2018-12-27T07:28:20.605Z,101536.67
2018-12-27T07:30:49.781Z,101523.71
2018-12-27T07:33:18.994Z,101528.63
2018-12-27T07:35:47.842Z,101529.06
2018-12-27T07:38:17.704Z,101525.05
2018-12-27T07:40:46.806Z,101520.12
2018-12-27T07:43:16.918Z,101519.23
2018-12-27T07:45:46.106Z,101512.52
2018-12-27T07:48:15.733Z,101520.57
2018-12-27T07:50:45.209Z,101519.67
2018-12-27T07:53:14.471Z,101514.78
2018-12-27T07:55:44.012Z,101518.33
2018-12-27T07:58:13.284Z,101515.64
2018-12-27T08:00:42.317Z,101521.91
2018-12-27T08:03:11.845Z,101521.02
2018-12-27T08:05:40.727Z,101516.53
2018-12-27T08:08:10.288Z,101522.34
2018-12-27T08:10:39.441Z,101522.36
2018-12-27T08:13:08.461Z,101532.17
2018-12-27T08:15:37.636Z,101526.81
2018-12-27T08:18:06.838Z,101524.58
2018-12-27T08:20:36.038Z,101529.52
2018-12-27T08:23:05.335Z,101531.31
2018-12-27T08:25:34.654Z,101531.28
2018-12-27T08:28:04.696Z,101538.45
2018-12-27T08:30:34.296Z,101532.64
2018-12-27T08:33:03.208Z,101535.75
2018-12-27T08:35:32.350Z,101535.72
2018-12-27T08:38:01.857Z,101537.52
2018-12-27T08:40:31.362Z,101537.97
2018-12-27T08:43:00.755Z,101531.70
2018-12-27T08:45:30.273Z,101537.06
2018-12-27T08:47:59.577Z,101541.09
2018-12-27T08:50:29.081Z,101539.31
2018-12-27T08:52:58.275Z,101546.02
2018-12-27T08:55:27.843Z,101547.33
2018-12-27T08:57:57.468Z,101539.76
2018-12-27T09:00:26.377Z,101546.02
2018-12-27T09:02:55.582Z,101554.97
2018-12-27T09:05:24.814Z,101548.70
2018-12-27T09:07:54.263Z,101554.52
2018-12-27T09:10:24.039Z,101550.48
2018-12-27T09:12:53.215Z,101546.94
2018-12-27T09:15:22.779Z,101543.80
2018-12-27T09:17:52.167Z,101553.19
2018-12-27T09:20:21.389Z,101543.83
2018-12-27T09:22:50.815Z,101548.30
2018-12-27T09:25:19.662Z,101545.16
2018-12-27T09:27:48.948Z,101543.37
2018-12-27T09:30:18.432Z,101539.34
2018-12-27T09:32:47.917Z,101542.50
2018-12-27T09:35:17.142Z,101542.94
2018-12-27T09:37:46.932Z,101551.42
2018-12-27T09:40:16.188Z,101550.53
2018-12-27T09:42:45.632Z,101550.55
2018-12-27T09:45:15.245Z,101550.55
2018-12-27T09:47:44.182Z,101547.84
2018-12-27T09:50:13.740Z,101552.31
2018-12-27T09:52:43.557Z,101546.48
2018-12-27T09:55:12.868Z,101541.09
2018-12-27T09:57:42.627Z,101541.52
2018-12-27T10:00:11.818Z,101540.62
2018-12-27T10:02:41.437Z,101528.96
2018-12-27T10:05:10.525Z,101532.06
2018-12-27T10:07:39.633Z,101525.80
2018-12-27T10:10:09.095Z,101519.94
2018-12-27T10:12:38.275Z,101520.35
2018-12-27T10:15:08.924Z,101517.63
2018-12-27T10:17:38.768Z,101518.91
2018-12-27T10:20:08.552Z,101510.75
2018-12-27T10:22:38.122Z,101500.80
2018-12-27T10:25:07.344Z,101498.93
2018-12-27T10:27:37.461Z,101496.63
2018-12-27T10:30:06.893Z,101493.48
2018-12-27T10:32:36.337Z,101492.58
2018-12-27T10:35:06.306Z,101489.02
2018-12-27T10:37:35.465Z,101479.59
2018-12-27T10:40:06.046Z,101480.03
2018-12-27T10:42:35.218Z,101472.86
2018-12-27T10:45:04.723Z,101469.27
2018-12-27T10:47:33.623Z,101469.73
2018-12-27T10:50:02.812Z,101455.38
2018-12-27T10:52:32.009Z,101456.67
2018-12-27T10:55:01.229Z,101451.29
2018-12-27T10:57:30.717Z,101452.16
2018-12-27T11:00:00.168Z,101444.05
2018-12-27T11:02:29.764Z,101437.28
2018-12-27T11:04:59.123Z,101438.20
2018-12-27T11:07:29.215Z,101429.22
2018-12-27T11:09:58.760Z,101425.56
2018-12-27T11:12:27.923Z,101421.08
2018-12-27T11:14:56.835Z,101417.03
2018-12-27T11:17:25.691Z,101417.42
2018-12-27T11:19:54.540Z,101407.11
2018-12-27T11:22:23.724Z,101407.98
2018-12-27T11:24:52.637Z,101401.98
2018-12-27T11:27:21.809Z,101404.84
2018-12-27T11:29:50.654Z,101401.70
2018-12-27T11:32:20.011Z,101393.98
2018-12-27T11:34:49.193Z,101389.98
2018-12-27T11:37:18.406Z,101384.59
2018-12-27T11:39:47.341Z,101379.34
2018-12-27T11:42:16.451Z,101377.06
2018-12-27T11:44:45.821Z,101370.73
2018-12-27T11:47:15.189Z,101371.55
2018-12-27T11:49:44.889Z,101363.45
2018-12-27T11:52:13.986Z,101363.76
2018-12-27T11:54:42.903Z,101361.15
2018-12-27T11:57:12.102Z,101362.58
2018-12-27T11:59:41.629Z,101362.95
2018-12-27T12:02:10.651Z,101357.48
2018-12-27T12:04:40.552Z,101353.41
2018-12-27T12:07:09.593Z,101347.91
2018-12-27T12:09:39.124Z,101350.61
2018-12-27T12:12:09.957Z,101343.80
2018-12-27T12:14:39.156Z,101341.51
2018-12-27T12:17:08.354Z,101333.88
2018-12-27T12:19:37.205Z,101332.88
2018-12-27T12:22:08.524Z,101332.91
2018-12-27T12:24:37.794Z,101331.06
2018-12-27T12:27:07.346Z,101325.68
2018-12-27T12:29:37.164Z,101326.08
2018-12-27T12:32:06.478Z,101321.56
2018-12-27T12:34:35.499Z,101321.91
2018-12-27T12:37:05.242Z,101316.09
2018-12-27T12:39:34.743Z,101314.74
2018-12-27T12:42:04.420Z,101312.05
2018-12-27T12:44:33.847Z,101311.11
2018-12-27T12:47:03.600Z,101312.02
2018-12-27T12:49:32.753Z,101315.15
2018-12-27T12:52:02.112Z,101313.34
2018-12-27T12:54:31.688Z,101308.45
2018-12-27T12:57:00.566Z,101303.12
2018-12-27T12:59:30.269Z,101299.03
2018-12-27T13:01:59.183Z,101286.96
2018-12-27T13:04:28.457Z,101291.47
2018-12-27T13:06:57.707Z,101286.53
2018-12-27T13:09:27.237Z,101281.08
2018-12-27T13:11:56.370Z,101279.67
2018-12-27T13:14:25.668Z,101285.55
2018-12-27T13:16:54.763Z,101287.00
2018-12-27T13:19:24.059Z,101287.00
2018-12-27T13:21:53.345Z,101277.08
2018-12-27T13:24:22.996Z,101279.27
2018-12-27T13:26:52.587Z,101277.47
2018-12-27T13:29:21.881Z,101276.11
2018-12-27T13:31:51.488Z,101277.91
2018-12-27T13:34:21.301Z,101282.38
2018-12-27T13:36:50.172Z,101286.72
2018-12-27T13:39:19.617Z,101286.77
2018-12-27T13:41:48.545Z,101260.05
2018-12-27T13:44:18.408Z,101288.17
2018-12-27T13:46:47.711Z,101292.15
2018-12-27T13:49:16.609Z,101284.54
2018-12-27T13:51:46.312Z,101278.75
2018-12-27T13:54:15.490Z,101281.00
2018-12-27T13:56:44.818Z,101274.22
2018-12-27T13:59:14.386Z,101273.31
2018-12-27T14:01:43.694Z,101273.25
2018-12-27T14:04:13.444Z,101274.52
2018-12-27T14:06:42.628Z,101272.67
2018-12-27T14:09:12.142Z,101275.75
2018-12-27T14:11:41.644Z,101274.83
2018-12-27T14:14:10.814Z,101264.95
2018-12-27T14:16:39.764Z,101271.26
2018-12-27T14:19:09.530Z,101262.28
2018-12-27T14:21:38.743Z,101266.38
2018-12-27T14:24:08.183Z,101272.56
2018-12-27T14:26:37.175Z,101268.67
2018-12-27T14:29:06.452Z,101262.41
2018-12-27T14:31:35.446Z,101266.87
2018-12-27T14:34:04.905Z,101272.66
2018-12-27T14:36:39.674Z,101265.87
2018-12-27T14:39:07.054Z,101268.09
2018-12-27T14:41:36.017Z,101264.52
2018-12-27T14:44:05.343Z,101265.98
2018-12-27T14:46:34.306Z,101263.80
2018-12-27T14:49:03.858Z,101262.91
2018-12-27T14:51:33.081Z,101263.27
2018-12-27T14:54:02.898Z,101266.88
2018-12-27T14:56:31.744Z,101273.69
2018-12-27T14:59:00.992Z,101267.42
2018-12-27T15:01:30.209Z,101269.77
2018-12-27T15:03:59.474Z,101265.75
2018-12-27T15:06:28.477Z,101274.34
2018-12-27T15:08:58.029Z,101273.53
2018-12-27T15:11:27.389Z,101278.91
2018-12-27T15:13:56.732Z,101279.38
2018-12-27T15:16:26.340Z,101274.91
2018-12-27T15:18:55.971Z,101281.69
2018-12-27T15:21:25.228Z,101278.11
2018-12-27T15:23:54.552Z,101280.80
2018-12-27T15:26:23.417Z,101289.35
2018-12-27T15:28:55.588Z,101288.00
2018-12-27T15:31:26.123Z,101284.42
2018-12-27T15:33:55.025Z,101288.91
2018-12-27T15:36:24.235Z,101289.35
2018-12-27T15:38:53.414Z,101289.80
2018-12-27T15:41:22.957Z,101286.25
2018-12-27T15:43:52.083Z,101290.34
2018-12-27T15:46:21.424Z,101287.20
2018-12-27T15:48:51.048Z,101287.66
2018-12-27T15:51:20.618Z,101287.66
2018-12-27T15:53:49.803Z,101284.06
2018-12-27T15:56:19.361Z,101284.97
2018-12-27T15:58:48.684Z,101287.19
2018-12-27T16:01:18.268Z,101290.30
2018-12-27T16:03:47.469Z,101288.95
2018-12-27T16:06:16.771Z,101291.17
2018-12-27T16:08:46.059Z,101293.86
2018-12-27T16:11:15.061Z,101297.02
2018-12-27T16:13:44.780Z,101301.56
2018-12-27T16:16:13.990Z,101306.95
2018-12-27T16:18:43.173Z,101315.48
2018-12-27T16:21:12.617Z,101311.91
2018-12-27T16:23:42.084Z,101308.80
2018-12-27T16:26:10.956Z,101317.86
2018-12-27T16:28:40.670Z,101313.02
2018-12-27T16:31:10.015Z,101311.26
2018-12-27T16:33:38.877Z,101317.19
2018-12-27T16:36:08.184Z,101309.20
2018-12-27T16:38:37.388Z,101310.58
2018-12-27T16:41:06.425Z,101311.53
2018-12-27T16:43:35.437Z,101310.21
2018-12-27T16:46:05.200Z,101310.23
2018-12-27T16:48:34.481Z,101316.13
2018-12-27T16:51:04.055Z,101310.83
2018-12-27T16:53:33.397Z,101307.73
2018-12-27T16:56:02.591Z,101313.18
2018-12-27T16:58:31.848Z,101312.76
2018-12-27T17:01:01.177Z,101311.48
2018-12-27T17:03:30.477Z,101310.22
2018-12-27T17:06:00.004Z,101306.20
2018-12-27T17:08:28.939Z,101299.09
2018-12-27T17:10:58.961Z,101304.03
2018-12-27T17:13:27.935Z,101308.08
2018-12-27T17:15:57.271Z,101306.75
2018-12-27T17:18:28.023Z,101308.14
2018-12-27T17:20:57.310Z,101314.86
2018-12-27T17:23:26.594Z,101307.70
2018-12-27T17:25:55.692Z,101305.47
2018-12-27T17:28:25.097Z,101311.80
2018-12-27T17:30:54.192Z,101310.92
2018-12-27T17:33:23.291Z,101308.69
2018-12-27T17:35:52.827Z,101309.15
2018-12-27T17:38:21.673Z,101302.42
2018-12-27T17:40:50.526Z,101300.69
2018-12-27T17:43:19.375Z,101304.27
2018-12-27T17:45:49.024Z,101310.09
2018-12-27T17:48:18.768Z,101309.66
2018-12-27T17:50:48.345Z,101306.58
2018-12-27T17:53:17.268Z,101316.00
2018-12-27T17:55:46.888Z,101314.22
2018-12-27T17:58:16.555Z,101317.80
2018-12-27T18:00:45.927Z,101317.39
2018-12-27T18:03:15.076Z,101312.03
2018-12-27T18:05:44.334Z,101316.51
2018-12-27T18:08:13.732Z,101306.67
2018-12-27T18:10:43.212Z,101311.59
2018-12-27T18:13:12.237Z,101306.67
2018-12-27T18:15:42.076Z,101307.11
2018-12-27T18:18:12.151Z,101308.91
2018-12-27T18:20:41.929Z,101312.49
2018-12-27T18:23:10.905Z,101315.19
2018-12-27T18:25:39.837Z,101320.16
2018-12-27T18:28:09.043Z,101319.72
2018-12-27T18:30:37.979Z,101321.05
2018-12-27T18:33:07.589Z,101320.16
2018-12-27T18:35:36.787Z,101319.27
2018-12-27T18:38:06.293Z,101311.66
2018-12-27T18:40:35.229Z,101315.23
2018-12-27T18:43:04.552Z,101316.57
2018-12-27T18:45:34.044Z,101309.36
2018-12-27T18:48:03.257Z,101309.81
2018-12-27T18:50:32.411Z,101304.89
2018-12-27T18:53:01.613Z,101313.39
2018-12-27T18:55:30.461Z,101302.24
2018-12-27T18:57:59.346Z,101313.89
2018-12-27T19:00:28.680Z,101317.48
2018-12-27T19:02:57.811Z,101313.01
2018-12-27T19:05:26.658Z,101311.22
2018-12-27T19:07:55.892Z,101317.92
2018-12-27T19:10:25.406Z,101314.34
2018-12-27T19:13:11.693Z,101309.41
2018-12-27T19:15:47.653Z,101308.52
2018-12-27T19:18:26.798Z,101308.53
2018-12-27T19:21:04.670Z,101308.53
2018-12-27T19:23:34.059Z,101312.13
2018-12-27T19:26:02.961Z,101309.92
2018-12-27T19:28:31.829Z,101314.85
2018-12-27T19:31:01.028Z,101311.71
2018-12-27T19:33:30.866Z,101310.77
2018-12-27T19:35:59.708Z,101321.50
2018-12-27T19:38:29.249Z,101322.84
2018-12-27T19:40:58.500Z,101329.56
2018-12-27T19:43:27.736Z,101327.77
2018-12-27T19:45:57.243Z,101325.97
2018-12-27T19:48:26.769Z,101328.66
2018-12-27T19:50:56.049Z,101339.86
2018-12-27T19:53:25.679Z,101344.34
2018-12-27T19:55:54.529Z,101351.95
2018-12-27T19:58:23.736Z,101344.80
2018-12-27T20:00:52.851Z,101355.11
2018-12-27T20:03:22.220Z,101352.02
2018-12-27T20:05:51.659Z,101364.10
2018-12-27T20:08:20.892Z,101358.29
2018-12-27T20:10:50.173Z,101366.35
2018-12-27T20:13:19.371Z,101370.38
2018-12-27T20:15:48.882Z,101365.42
2018-12-27T20:18:18.278Z,101357.38
2018-12-27T20:20:47.201Z,101364.98
2018-12-27T20:23:16.064Z,101356.52
2018-12-27T20:25:45.245Z,101362.34
2018-12-27T20:28:14.341Z,101371.75
2018-12-27T20:30:43.377Z,101355.64
2018-12-27T20:33:12.261Z,101365.94
2018-12-27T20:35:41.722Z,101357.02
2018-12-27T20:38:11.515Z,101362.80
2018-12-27T20:40:40.792Z,101357.02
2018-12-27T20:43:09.944Z,101367.28
2018-12-27T20:45:38.806Z,101376.27
2018-12-27T20:48:08.746Z,101373.59
2018-12-27T20:50:37.891Z,101375.87
2018-12-27T20:53:07.377Z,101373.20
2018-12-27T20:55:36.697Z,101374.12
2018-12-27T20:58:06.032Z,101381.75
2018-12-27T21:00:35.320Z,101370.56
2018-12-27T21:03:04.582Z,101372.35
2018-12-27T21:05:33.962Z,101370.60
2018-12-27T21:08:02.805Z,101360.76
2018-12-27T21:10:32.924Z,101367.02
2018-12-27T21:13:02.035Z,101362.11
2018-12-27T21:15:30.895Z,101361.20
2018-12-27T21:18:00.084Z,101358.07
2018-12-27T21:20:29.189Z,101359.42
2018-12-27T21:22:58.785Z,101368.41
2018-12-27T21:25:28.150Z,101372.44
2018-12-27T21:27:57.589Z,101361.25
2018-12-27T21:30:26.927Z,101350.96
2018-12-27T21:32:56.180Z,101361.25
2018-12-27T21:35:25.584Z,101362.63
2018-12-27T21:37:55.221Z,101365.72
2018-12-27T21:40:24.406Z,101363.94
2018-12-27T21:42:53.345Z,101358.11
2018-12-27T21:45:22.269Z,101354.94
2018-12-27T21:47:51.124Z,101353.11
2018-12-27T21:50:20.276Z,101351.30
2018-12-27T21:52:49.198Z,101353.05
2018-12-27T21:55:18.477Z,101349.41
2018-12-27T21:57:47.382Z,101348.02
2018-12-27T22:00:16.442Z,101343.98
2018-12-27T22:02:45.669Z,101342.60
2018-12-27T22:05:15.563Z,101340.36
2018-12-27T22:07:44.774Z,101335.91
2018-12-27T22:10:13.853Z,101323.31
2018-12-27T22:12:43.289Z,101330.92
2018-12-27T22:15:13.189Z,101321.95
2018-12-27T22:17:42.052Z,101328.18
2018-12-27T22:20:11.434Z,101334.05
2018-12-27T22:22:40.661Z,101343.45
2018-12-27T22:25:10.191Z,101345.23
2018-12-27T22:27:39.043Z,101352.41
2018-12-27T22:30:08.285Z,101361.37
2018-12-27T22:32:37.533Z,101364.95
2018-12-27T22:35:06.567Z,101370.33
2018-12-27T22:37:35.757Z,101379.74
2018-12-27T22:40:05.308Z,101360.55
2018-12-27T22:42:34.257Z,101358.38
2018-12-27T22:45:03.914Z,101363.34
2018-12-27T22:47:33.711Z,101357.08
2018-12-27T22:50:02.895Z,101351.25
2018-12-27T22:52:31.743Z,101344.99
2018-12-27T22:55:00.878Z,101346.78
2018-12-27T22:57:29.980Z,101343.16
2018-12-27T22:59:59.083Z,101332.41
2018-12-27T23:02:28.377Z,101336.88
2018-12-27T23:04:57.570Z,101335.53
2018-12-27T23:07:26.774Z,101326.98
2018-12-27T23:09:55.963Z,101331.02
2018-12-27T23:12:25.456Z,101322.52
2018-12-27T23:14:55.221Z,101317.58
2018-12-27T23:17:24.969Z,101321.61
2018-12-27T23:19:53.910Z,101326.58
2018-12-27T23:22:23.073Z,101326.13
2018-12-27T23:24:52.261Z,101323.44
2018-12-27T23:27:21.396Z,101330.57
2018-12-27T23:29:50.660Z,101332.84
2018-12-27T23:32:20.152Z,101335.94
2018-12-27T23:34:49.411Z,101335.53
2018-12-27T23:37:19.207Z,101342.65
2018-12-27T23:39:48.396Z,101331.85
2018-12-27T23:42:17.252Z,101333.66
2018-12-27T23:44:46.459Z,101315.25
2018-12-27T23:47:15.695Z,101313.89
2018-12-27T23:49:45.307Z,101298.66
2018-12-27T23:52:14.591Z,101292.39
2018-12-27T23:54:43.852Z,101287.87
2018-12-27T23:57:13.297Z,101287.91
2018-12-27T23:59:42.675Z,101273.13
